Sun 2017-08-20 17:46
Local weather stations in Arizona
KCGZ
Casa_Grande_Muni_Airport
Casa Grande, Casa Grande Municipal Airport, AZ, United States (KCGZ) 32-57N 111-46W
Aug 20, 2017 - 07:56 PM EDT / 2017.08.20 2356 UTC
Wind: from the W (270 degrees) at 7 MPH (6 KT):0
Visibility: 10 mile(s):0
Sky conditions: clear
Temperature: 98.1 F (36.7 C)
Heat index: 94.8 F (34.9 C):1
Dew Point: 48.9 F (9.4 C)
Relative Humidity: 19%
Pressure (altimeter): 29.82 in. Hg (1009 hPa)
Pressure tendency: 0.06 inches (2.1 hPa) lower than three hours ago
ob: KCGZ 202356Z AUTO 27006KT 10SM CLR 37/09 A2982 RMK AO2 SLP080 6//// T03670094 10372 20317 56021 
cycle: 0
KRYN
Tucson/Ryan_Field
Station name not available
Aug 20, 2017 - 07:57 PM EDT / 2017.08.20 2357 UTC
Wind: from the NE (050 degrees) at 5 MPH (4 KT):0
Visibility: 10 mile(s):0
Sky conditions: clear
Temperature: 93 F (34 C)
Dew Point: 50 F (10 C)
Relative Humidity: 23%
Pressure (altimeter): 29.9 in. Hg (1012 hPa)
ob: KRYN 202357Z 05004KT 10SM CLR 34/10 A2990 
cycle: 0
KDMA
Tucson/Davis-Monthan-AFB
Davis-Monthan Air Force Base, AZ, United States (KDMA) 32-10N 110-53W
Aug 20, 2017 - 07:58 PM EDT / 2017.08.20 2358 UTC
Wind: from the W (270 degrees) at 5 MPH (4 KT):0
Visibility: 10 mile(s):0
Sky conditions: mostly cloudy
Temperature: 95.7 F (35.4 C)
Dew Point: 53.1 F (11.7 C)
Relative Humidity: 23%
Pressure (altimeter): 29.91 in. Hg (1012 hPa)
Pressure tendency: 0.06 inches (1.9 hPa) lower than three hours ago
ob: KDMA 202358Z AUTO 27004KT 10SM BKN130 35/12 A2991 RMK AO2 SLP080 T03540117 10359 20333 57019 
cycle: 0
KOLS
Nogales-Intl_Airport
NOGALES INTERNATIONAL AIRPORT , AZ, United States (KOLS) 31-25N 110-51W 1184M
Aug 20, 2017 - 07:54 PM EDT / 2017.08.20 2354 UTC
Wind: from the WNW (300 degrees) at 6 MPH (5 KT):0
Visibility: 10 mile(s):0
Sky conditions: mostly cloudy
Temperature: 84.0 F (28.9 C)
Dew Point: 55.0 F (12.8 C)
Relative Humidity: 37%
Pressure (altimeter): 30.01 in. Hg (1016 hPa)
Pressure tendency: 0.05 inches (1.6 hPa) lower than three hours ago
ob: KOLS 202354Z AUTO 30005KT 10SM BKN080 29/13 A3001 RMK AO2 SLP093 T02890128 10311 20267 56016
cycle: 0
KFHU
Fort-Huachuca
Fort Huachuca, Libby AAF Ft Huachuca, AZ, United States (KFHU) 46-98N 110-20W
Aug 20, 2017 - 07:58 PM EDT / 2017.08.20 2358 UTC
Wind: from the ESE (110 degrees) at 6 MPH (5 KT):0
Visibility: 10 mile(s):0
Sky conditions: partly cloudy
Weather: Lightning observed
Temperature: 81.7 F (27.6 C)
Dew Point: 51.6 F (10.9 C)
Relative Humidity: 35%
Pressure (altimeter): 30.08 in. Hg (1018 hPa)
Pressure tendency: 0.04 inches (1.3 hPa) lower than three hours ago
ob: KFHU 202358Z AUTO 11005KT 10SM SCT070 28/11 A3008 RMK AO2 LTG DSNT SE SLP112 T02760109 10293 20227 57013 
cycle: 0
KSAD
Safford
SAFFORD MUNICIPAL AIRPORT, AZ, United States (KSAD) 32-51N 109-38W 962M
Aug 20, 2017 - 07:51 PM EDT / 2017.08.20 2351 UTC
Wind: from the S (170 degrees) at 6 MPH (5 KT):0
Visibility: 10 mile(s):0
Sky conditions: mostly cloudy
Temperature: 86.0 F (30.0 C)
Dew Point: 54.0 F (12.2 C)
Relative Humidity: 33%
Pressure (altimeter): 29.94 in. Hg (1013 hPa)
Pressure tendency: 0.06 inches (2.2 hPa) lower than three hours ago
ob: KSAD 202351Z AUTO 17005KT 10SM BKN110 30/12 A2994 RMK AO2 SLP086 T03000122 10311 20267 56022
cycle: 0
KGBN
Gila_Bend
Gila Bend U. S. Army Airfield, AZ, United States (KGBN) 32-26N 112-41W 261M
Jul 20, 2017 - 10:57 AM EDT / 2017.07.20 1457 UTC
Wind: Calm:0
Visibility: 10 mile(s):0
Sky conditions: partly cloudy
Temperature: 86 F (30 C)
Dew Point: 68 F (20 C)
Relative Humidity: 55%
Pressure (altimeter): 29.97 in. Hg (1014 hPa)
ob: KGBN 201457Z 00000KT 10SM FEW100 SCT150 30/20 A2997 RMK A02 NO SLP
cycle: 15
KYUM
Yuma_Intl
Yuma / Yuma International, AZ, United States (KYUM) 32-39N 114-36W 63M
Nov 07, 2008 - 06:20 AM EST / 2008.11.07 1120 UTC
Wind: from the N (010 degrees) at 7 MPH (6 KT):0
Sky conditions: clear
ob: KYUM 071120Z 0712/0812 01006KT P6SM SKC FM071700 02012KT P6SM SKC FM080100 33005KT P6SM SKC
cycle: 11
KPHX
Phoenix
Phoenix, Phoenix Sky Harbor International Airport, AZ, United States (KPHX) 33-26-03N 112-03-04W 336M
Aug 20, 2017 - 07:51 PM EDT / 2017.08.20 2351 UTC
Wind: from the NNW (340 degrees) at 9 MPH (8 KT):0
Visibility: 10 mile(s):0
Sky conditions: partly cloudy
Temperature: 100.0 F (37.8 C)
Dew Point: 44.1 F (6.7 C)
Relative Humidity: 14%
Pressure (altimeter): 29.78 in. Hg (1008 hPa)
Pressure tendency: 0.06 inches (2.1 hPa) lower than three hours ago
ob: KPHX 202351Z 34008KT 10SM FEW100 FEW130 SCT170 SCT250 38/07 A2978 RMK AO2 SLP062 T03780067 10389 20317 56021 
cycle: 0
KPRC
Prescott_LoveField
PRESCOTT LOVE FIELD, AZ, United States (KPRC) 34-39N 112-25W 1524M
Aug 20, 2017 - 07:53 PM EDT / 2017.08.20 2353 UTC
Wind: Variable at 6 MPH (5 KT):0
Visibility: 10 mile(s):0
Sky conditions: partly cloudy
Weather: Lightning observed
Temperature: 82.9 F (28.3 C)
Dew Point: 48.9 F (9.4 C)
Relative Humidity: 30%
Pressure (altimeter): 30.09 in. Hg (1018 hPa)
Pressure tendency: 0.03 inches (0.9 hPa) lower than three hours ago
ob: KPRC 202353Z VRB05KT 10SM SCT100 28/09 A3009 RMK AO2 LTG DSNT N-E SLP104 T02830094 10294 20244 56009
cycle: 0
KGCN
Grand_Canyon
GRAND CANYON NATL PARK AIRPORT , AZ, United States (KGCN) 35-57N 112-09W 2016M
Aug 20, 2017 - 07:54 PM EDT / 2017.08.20 2354 UTC
Wind: from the N (360 degrees) at 8 MPH (7 KT):0
Visibility: 10 mile(s):0
Weather: Lightning observed
Temperature: 66.0 F (18.9 C)
Dew Point: 46.9 F (8.3 C)
Relative Humidity: 50%
Pressure (altimeter): 30.24 in. Hg (1024 hPa)
ob: KGCN 202354Z 36007KT 10SM 19/08 A3024 RMK AO2 LTG DSNT S SLP169 T01890083 10283 20183 
cycle: 0
KINW
Winslow
WINSLOW MUNICIPAL AIRPORT, AZ, United States (KINW) 35-02N 110-43W 1490M
Aug 20, 2017 - 07:56 PM EDT / 2017.08.20 2356 UTC
Wind: from the WSW (250 degrees) at 17 MPH (15 KT) gusting to 23 MPH (20 KT):0
Visibility: 10 mile(s):0
Sky conditions: clear
Temperature: 81.0 F (27.2 C)
Dew Point: 48.9 F (9.4 C)
Relative Humidity: 32%
Pressure (altimeter): 30.05 in. Hg (1017 hPa)
Pressure tendency: 0.01 inches (0.2 hPa) lower than three hours ago
ob: KINW 202356Z AUTO 25015G20KT 10SM CLR 27/09 A3005 RMK AO2 PK WND 25029/2258 SLP099 T02720094 10339 20261 55002
cycle: 0
KIFP
Bullhead_City
Bullhead City, Laughlin/Bullhead International Airport, AZ, United States (KIFP) 35-09-27N 114-33-34W
Aug 20, 2017 - 08:35 PM EDT / 2017.08.21 0035 UTC
Wind: from the SSW (210 degrees) at 16 MPH (14 KT):0
Visibility: 10 mile(s):0
Sky conditions: clear
Temperature: 104 F (40 C)
Dew Point: 42 F (6 C)
Relative Humidity: 12%
Pressure (altimeter): 29.72 in. Hg (1006 hPa)
ob: KIFP 210035Z 21014KT 10SM CLR 40/06 A2972 RMK AO2
cycle: 0
43 seconds elapsed
Crontab entry: 1,16,31,46 * * * * /var/www/html/area/area.sh >/dev/null
To get a list of weather stations please use this URL:
    http://weather.rap.ucar.edu/surface/stations.txt